sensor_id;sensor_type;location;lat;lon;timestamp;P1;durP1;ratioP1;P2;durP2;ratioP2
32200;SDS011;18701;45.588;5.288;2023-04-24T00:01:41;4.43;;;0.30;;
32200;SDS011;18701;45.588;5.288;2023-04-24T00:04:07;0.75;;;0.10;;
32200;SDS011;18701;45.588;5.288;2023-04-24T00:06:35;2.58;;;0.85;;
32200;SDS011;18701;45.588;5.288;2023-04-24T00:09:02;3.50;;;0.20;;
32200;SDS011;18701;45.588;5.288;2023-04-24T00:11:29;5.20;;;0.38;;
32200;SDS011;18701;45.588;5.288;2023-04-24T00:13:55;1.05;;;0.25;;
32200;SDS011;18701;45.588;5.288;2023-04-24T00:16:21;1.30;;;0.20;;
32200;SDS011;18701;45.588;5.288;2023-04-24T00:18:48;1.83;;;0.30;;
32200;SDS011;18701;45.588;5.288;2023-04-24T00:21:14;1.13;;;0.40;;
32200;SDS011;18701;45.588;5.288;2023-04-24T00:23:42;3.60;;;0.20;;
32200;SDS011;18701;45.588;5.288;2023-04-24T00:26:09;2.50;;;0.47;;
32200;SDS011;18701;45.588;5.288;2023-04-24T00:28:35;2.33;;;0.10;;
32200;SDS011;18701;45.588;5.288;2023-04-24T00:31:00;2.58;;;0.50;;
32200;SDS011;18701;45.588;5.288;2023-04-24T00:33:26;0.65;;;0.20;;
32200;SDS011;18701;45.588;5.288;2023-04-24T00:35:52;2.72;;;0.30;;
32200;SDS011;18701;45.588;5.288;2023-04-24T00:38:18;4.10;;;0.30;;
32200;SDS011;18701;45.588;5.288;2023-04-24T00:40:43;3.28;;;0.40;;
32200;SDS011;18701;45.588;5.288;2023-04-24T00:43:09;3.80;;;0.20;;
32200;SDS011;18701;45.588;5.288;2023-04-24T00:45:35;1.25;;;0.20;;
32200;SDS011;18701;45.588;5.288;2023-04-24T00:48:01;3.65;;;0.38;;
32200;SDS011;18701;45.588;5.288;2023-04-24T00:50:27;1.65;;;0.32;;
32200;SDS011;18701;45.588;5.288;2023-04-24T00:52:54;0.98;;;0.30;;
32200;SDS011;18701;45.588;5.288;2023-04-24T00:55:20;3.65;;;0.20;;
32200;SDS011;18701;45.588;5.288;2023-04-24T00:57:45;3.42;;;0.25;;
32200;SDS011;18701;45.588;5.288;2023-04-24T01:00:12;1.83;;;0.30;;
32200;SDS011;18701;45.588;5.288;2023-04-24T01:02:39;2.58;;;0.30;;
32200;SDS011;18701;45.588;5.288;2023-04-24T01:05:10;1.55;;;0.30;;
32200;SDS011;18701;45.588;5.288;2023-04-24T01:07:36;5.95;;;0.30;;
32200;SDS011;18701;45.588;5.288;2023-04-24T01:10:03;2.47;;;0.30;;
32200;SDS011;18701;45.588;5.288;2023-04-24T01:12:29;1.50;;;0.20;;
32200;SDS011;18701;45.588;5.288;2023-04-24T01:14:55;2.85;;;0.30;;
32200;SDS011;18701;45.588;5.288;2023-04-24T01:17:21;8.38;;;0.22;;
32200;SDS011;18701;45.588;5.288;2023-04-24T01:19:50;0.60;;;0.20;;
32200;SDS011;18701;45.588;5.288;2023-04-24T01:22:18;4.35;;;0.30;;
32200;SDS011;18701;45.588;5.288;2023-04-24T01:24:45;1.17;;;0.20;;
32200;SDS011;18701;45.588;5.288;2023-04-24T01:27:11;3.20;;;0.68;;
32200;SDS011;18701;45.588;5.288;2023-04-24T01:29:37;0.90;;;0.25;;
32200;SDS011;18701;45.588;5.288;2023-04-24T01:32:03;3.45;;;0.40;;
32200;SDS011;18701;45.588;5.288;2023-04-24T01:34:29;4.03;;;0.40;;
32200;SDS011;18701;45.588;5.288;2023-04-24T01:36:55;1.67;;;0.38;;
32200;SDS011;18701;45.588;5.288;2023-04-24T01:39:21;5.85;;;0.40;;
32200;SDS011;18701;45.588;5.288;2023-04-24T01:41:50;1.48;;;0.30;;
32200;SDS011;18701;45.588;5.288;2023-04-24T01:44:19;1.52;;;0.47;;
32200;SDS011;18701;45.588;5.288;2023-04-24T01:46:45;3.70;;;0.35;;
32200;SDS011;18701;45.588;5.288;2023-04-24T01:49:11;3.67;;;0.40;;
32200;SDS011;18701;45.588;5.288;2023-04-24T01:51:37;1.88;;;0.20;;
32200;SDS011;18701;45.588;5.288;2023-04-24T01:54:03;2.53;;;0.15;;
32200;SDS011;18701;45.588;5.288;2023-04-24T01:56:29;3.10;;;0.30;;
32200;SDS011;18701;45.588;5.288;2023-04-24T01:58:55;2.08;;;0.20;;
32200;SDS011;18701;45.588;5.288;2023-04-24T02:01:23;1.30;;;0.20;;
32200;SDS011;18701;45.588;5.288;2023-04-24T02:03:49;0.85;;;0.20;;
32200;SDS011;18701;45.588;5.288;2023-04-24T02:06:15;3.03;;;0.28;;
32200;SDS011;18701;45.588;5.288;2023-04-24T02:08:41;1.50;;;0.13;;
32200;SDS011;18701;45.588;5.288;2023-04-24T02:11:08;1.73;;;0.20;;
32200;SDS011;18701;45.588;5.288;2023-04-24T02:13:34;0.75;;;0.10;;
32200;SDS011;18701;45.588;5.288;2023-04-24T02:16:00;1.65;;;0.10;;
32200;SDS011;18701;45.588;5.288;2023-04-24T02:18:26;2.72;;;0.17;;
32200;SDS011;18701;45.588;5.288;2023-04-24T02:20:51;3.15;;;0.25;;
32200;SDS011;18701;45.588;5.288;2023-04-24T02:23:17;2.55;;;0.30;;
32200;SDS011;18701;45.588;5.288;2023-04-24T02:25:43;3.78;;;0.25;;
32200;SDS011;18701;45.588;5.288;2023-04-24T02:28:08;3.63;;;0.35;;
32200;SDS011;18701;45.588;5.288;2023-04-24T02:30:34;2.35;;;0.40;;
32200;SDS011;18701;45.588;5.288;2023-04-24T02:32:59;2.83;;;0.20;;
32200;SDS011;18701;45.588;5.288;2023-04-24T02:35:25;4.00;;;0.60;;
32200;SDS011;18701;45.588;5.288;2023-04-24T02:37:51;4.07;;;0.30;;
32200;SDS011;18701;45.588;5.288;2023-04-24T02:40:16;2.05;;;0.28;;
32200;SDS011;18701;45.588;5.288;2023-04-24T02:42:42;1.00;;;0.20;;
32200;SDS011;18701;45.588;5.288;2023-04-24T02:45:08;1.00;;;0.10;;
32200;SDS011;18701;45.588;5.288;2023-04-24T02:47:34;2.85;;;0.10;;
32200;SDS011;18701;45.588;5.288;2023-04-24T02:49:59;1.25;;;0.20;;
32200;SDS011;18701;45.588;5.288;2023-04-24T02:52:26;4.60;;;0.30;;
32200;SDS011;18701;45.588;5.288;2023-04-24T02:54:51;3.60;;;0.17;;
32200;SDS011;18701;45.588;5.288;2023-04-24T02:57:18;3.40;;;0.13;;
32200;SDS011;18701;45.588;5.288;2023-04-24T02:59:44;2.70;;;0.22;;
32200;SDS011;18701;45.588;5.288;2023-04-24T03:02:09;1.35;;;0.20;;
32200;SDS011;18701;45.588;5.288;2023-04-24T03:04:35;1.33;;;0.20;;
32200;SDS011;18701;45.588;5.288;2023-04-24T03:07:01;6.38;;;0.20;;
32200;SDS011;18701;45.588;5.288;2023-04-24T03:09:27;2.55;;;0.38;;
32200;SDS011;18701;45.588;5.288;2023-04-24T03:11:52;1.45;;;0.20;;
32200;SDS011;18701;45.588;5.288;2023-04-24T03:14:18;1.60;;;0.20;;
32200;SDS011;18701;45.588;5.288;2023-04-24T03:16:44;1.55;;;0.10;;
32200;SDS011;18701;45.588;5.288;2023-04-24T03:19:09;1.35;;;0.20;;
32200;SDS011;18701;45.588;5.288;2023-04-24T03:21:35;1.08;;;0.10;;
32200;SDS011;18701;45.588;5.288;2023-04-24T03:24:05;8.02;;;0.25;;
32200;SDS011;18701;45.588;5.288;2023-04-24T03:26:32;1.85;;;0.10;;
32200;SDS011;18701;45.588;5.288;2023-04-24T03:28:57;2.00;;;0.10;;
32200;SDS011;18701;45.588;5.288;2023-04-24T03:31:23;0.82;;;0.20;;
32200;SDS011;18701;45.588;5.288;2023-04-24T03:33:48;1.45;;;0.35;;
32200;SDS011;18701;45.588;5.288;2023-04-24T03:36:14;2.45;;;0.30;;
32200;SDS011;18701;45.588;5.288;2023-04-24T03:38:40;2.00;;;0.30;;
32200;SDS011;18701;45.588;5.288;2023-04-24T03:41:05;9.02;;;0.40;;
32200;SDS011;18701;45.588;5.288;2023-04-24T03:43:31;3.13;;;0.30;;
32200;SDS011;18701;45.588;5.288;2023-04-24T03:45:58;2.30;;;0.28;;
32200;SDS011;18701;45.588;5.288;2023-04-24T03:48:24;2.42;;;0.30;;
32200;SDS011;18701;45.588;5.288;2023-04-24T03:50:49;3.60;;;0.28;;
32200;SDS011;18701;45.588;5.288;2023-04-24T03:53:15;4.32;;;0.15;;
32200;SDS011;18701;45.588;5.288;2023-04-24T03:55:40;4.82;;;0.20;;
32200;SDS011;18701;45.588;5.288;2023-04-24T03:58:06;0.90;;;0.20;;
32200;SDS011;18701;45.588;5.288;2023-04-24T04:00:32;3.50;;;0.20;;
32200;SDS011;18701;45.588;5.288;2023-04-24T04:02:58;1.58;;;0.40;;
32200;SDS011;18701;45.588;5.288;2023-04-24T04:05:23;1.60;;;0.40;;
32200;SDS011;18701;45.588;5.288;2023-04-24T04:07:49;2.08;;;0.35;;
32200;SDS011;18701;45.588;5.288;2023-04-24T04:10:15;1.73;;;0.38;;
32200;SDS011;18701;45.588;5.288;2023-04-24T04:12:42;8.98;;;3.42;;
32200;SDS011;18701;45.588;5.288;2023-04-24T04:15:08;12.15;;;4.78;;
32200;SDS011;18701;45.588;5.288;2023-04-24T04:17:33;4.20;;;3.72;;
32200;SDS011;18701;45.588;5.288;2023-04-24T04:19:59;10.70;;;3.00;;
32200;SDS011;18701;45.588;5.288;2023-04-24T04:22:25;3.35;;;1.15;;
32200;SDS011;18701;45.588;5.288;2023-04-24T04:24:51;2.85;;;0.47;;
32200;SDS011;18701;45.588;5.288;2023-04-24T04:27:17;4.55;;;0.50;;
32200;SDS011;18701;45.588;5.288;2023-04-24T04:29:43;10.13;;;0.70;;
32200;SDS011;18701;45.588;5.288;2023-04-24T04:32:09;5.45;;;0.43;;
32200;SDS011;18701;45.588;5.288;2023-04-24T04:34:35;5.05;;;0.45;;
32200;SDS011;18701;45.588;5.288;2023-04-24T04:37:02;8.40;;;0.80;;
32200;SDS011;18701;45.588;5.288;2023-04-24T04:39:28;5.55;;;0.52;;
32200;SDS011;18701;45.588;5.288;2023-04-24T04:41:55;3.15;;;0.40;;
32200;SDS011;18701;45.588;5.288;2023-04-24T04:44:21;5.55;;;0.80;;
32200;SDS011;18701;45.588;5.288;2023-04-24T04:46:47;3.60;;;0.73;;
32200;SDS011;18701;45.588;5.288;2023-04-24T04:49:12;3.88;;;0.98;;
32200;SDS011;18701;45.588;5.288;2023-04-24T04:51:41;4.60;;;0.40;;
32200;SDS011;18701;45.588;5.288;2023-04-24T04:54:07;1.88;;;0.43;;
32200;SDS011;18701;45.588;5.288;2023-04-24T04:56:33;2.80;;;0.47;;
32200;SDS011;18701;45.588;5.288;2023-04-24T04:58:58;1.25;;;0.40;;
32200;SDS011;18701;45.588;5.288;2023-04-24T05:01:24;2.38;;;0.50;;
32200;SDS011;18701;45.588;5.288;2023-04-24T05:03:52;5.57;;;1.02;;
32200;SDS011;18701;45.588;5.288;2023-04-24T05:06:18;3.47;;;0.68;;
32200;SDS011;18701;45.588;5.288;2023-04-24T05:08:43;3.20;;;1.10;;
32200;SDS011;18701;45.588;5.288;2023-04-24T05:11:09;3.60;;;0.68;;
32200;SDS011;18701;45.588;5.288;2023-04-24T05:13:35;2.95;;;0.50;;
32200;SDS011;18701;45.588;5.288;2023-04-24T05:16:00;5.85;;;0.63;;
32200;SDS011;18701;45.588;5.288;2023-04-24T05:18:26;4.75;;;0.95;;
32200;SDS011;18701;45.588;5.288;2023-04-24T05:20:52;3.38;;;0.80;;
32200;SDS011;18701;45.588;5.288;2023-04-24T05:23:17;2.13;;;0.57;;
32200;SDS011;18701;45.588;5.288;2023-04-24T05:25:43;4.78;;;0.93;;
32200;SDS011;18701;45.588;5.288;2023-04-24T05:28:08;6.40;;;0.80;;
32200;SDS011;18701;45.588;5.288;2023-04-24T05:30:34;3.25;;;0.68;;
32200;SDS011;18701;45.588;5.288;2023-04-24T05:33:00;6.32;;;1.33;;
32200;SDS011;18701;45.588;5.288;2023-04-24T05:35:26;6.47;;;0.90;;
32200;SDS011;18701;45.588;5.288;2023-04-24T05:37:51;5.47;;;0.82;;
32200;SDS011;18701;45.588;5.288;2023-04-24T05:40:18;8.98;;;0.65;;
32200;SDS011;18701;45.588;5.288;2023-04-24T05:42:44;4.13;;;0.80;;
32200;SDS011;18701;45.588;5.288;2023-04-24T05:45:10;5.22;;;0.75;;
32200;SDS011;18701;45.588;5.288;2023-04-24T05:47:41;3.85;;;0.60;;
32200;SDS011;18701;45.588;5.288;2023-04-24T05:50:07;3.55;;;0.60;;
32200;SDS011;18701;45.588;5.288;2023-04-24T05:52:33;4.20;;;1.52;;
32200;SDS011;18701;45.588;5.288;2023-04-24T05:54:59;5.53;;;1.00;;
32200;SDS011;18701;45.588;5.288;2023-04-24T05:57:24;3.30;;;0.65;;
32200;SDS011;18701;45.588;5.288;2023-04-24T05:59:50;6.68;;;0.63;;
32200;SDS011;18701;45.588;5.288;2023-04-24T06:02:16;3.08;;;0.82;;
32200;SDS011;18701;45.588;5.288;2023-04-24T06:04:42;8.70;;;0.75;;
32200;SDS011;18701;45.588;5.288;2023-04-24T06:07:10;3.65;;;0.50;;
32200;SDS011;18701;45.588;5.288;2023-04-24T06:09:36;4.15;;;0.50;;
32200;SDS011;18701;45.588;5.288;2023-04-24T06:12:01;3.78;;;0.77;;
32200;SDS011;18701;45.588;5.288;2023-04-24T06:14:27;1.75;;;0.40;;
32200;SDS011;18701;45.588;5.288;2023-04-24T06:16:53;2.05;;;0.43;;
32200;SDS011;18701;45.588;5.288;2023-04-24T06:19:19;3.75;;;0.30;;
32200;SDS011;18701;45.588;5.288;2023-04-24T06:21:44;3.85;;;0.40;;
32200;SDS011;18701;45.588;5.288;2023-04-24T06:24:10;3.22;;;0.35;;
32200;SDS011;18701;45.588;5.288;2023-04-24T06:26:36;2.13;;;0.40;;
32200;SDS011;18701;45.588;5.288;2023-04-24T06:29:01;4.47;;;0.60;;
32200;SDS011;18701;45.588;5.288;2023-04-24T06:31:27;4.40;;;0.68;;
32200;SDS011;18701;45.588;5.288;2023-04-24T06:33:53;3.92;;;1.02;;
32200;SDS011;18701;45.588;5.288;2023-04-24T06:36:19;5.50;;;0.60;;
32200;SDS011;18701;45.588;5.288;2023-04-24T06:38:44;5.28;;;0.68;;
32200;SDS011;18701;45.588;5.288;2023-04-24T06:41:10;4.32;;;1.05;;
32200;SDS011;18701;45.588;5.288;2023-04-24T06:43:36;5.78;;;0.68;;
32200;SDS011;18701;45.588;5.288;2023-04-24T06:46:01;4.80;;;0.70;;
32200;SDS011;18701;45.588;5.288;2023-04-24T06:48:28;5.93;;;1.45;;
32200;SDS011;18701;45.588;5.288;2023-04-24T06:50:54;5.68;;;1.48;;
32200;SDS011;18701;45.588;5.288;2023-04-24T06:53:20;6.55;;;0.60;;
32200;SDS011;18701;45.588;5.288;2023-04-24T06:55:45;2.47;;;0.30;;
32200;SDS011;18701;45.588;5.288;2023-04-24T06:58:11;3.05;;;0.45;;
32200;SDS011;18701;45.588;5.288;2023-04-24T07:00:37;2.70;;;0.50;;
32200;SDS011;18701;45.588;5.288;2023-04-24T07:03:03;9.63;;;0.80;;
32200;SDS011;18701;45.588;5.288;2023-04-24T07:05:30;4.88;;;1.13;;
32200;SDS011;18701;45.588;5.288;2023-04-24T07:07:56;2.45;;;0.50;;
32200;SDS011;18701;45.588;5.288;2023-04-24T07:10:23;2.05;;;0.30;;
32200;SDS011;18701;45.588;5.288;2023-04-24T07:12:49;9.15;;;1.13;;
32200;SDS011;18701;45.588;5.288;2023-04-24T07:15:15;3.90;;;0.82;;
32200;SDS011;18701;45.588;5.288;2023-04-24T07:17:41;3.15;;;0.30;;
32200;SDS011;18701;45.588;5.288;2023-04-24T07:20:09;5.22;;;0.50;;
32200;SDS011;18701;45.588;5.288;2023-04-24T07:22:39;3.08;;;0.40;;
32200;SDS011;18701;45.588;5.288;2023-04-24T07:25:05;2.92;;;0.75;;
32200;SDS011;18701;45.588;5.288;2023-04-24T07:27:32;4.45;;;0.75;;
32200;SDS011;18701;45.588;5.288;2023-04-24T07:29:58;5.97;;;0.68;;
32200;SDS011;18701;45.588;5.288;2023-04-24T07:32:23;2.85;;;0.60;;
32200;SDS011;18701;45.588;5.288;2023-04-24T07:34:49;2.50;;;0.70;;
32200;SDS011;18701;45.588;5.288;2023-04-24T07:37:14;4.30;;;0.98;;
32200;SDS011;18701;45.588;5.288;2023-04-24T07:39:40;3.25;;;0.85;;
32200;SDS011;18701;45.588;5.288;2023-04-24T07:42:06;3.00;;;0.60;;
32200;SDS011;18701;45.588;5.288;2023-04-24T07:44:31;5.03;;;0.85;;
32200;SDS011;18701;45.588;5.288;2023-04-24T07:46:57;6.13;;;1.02;;
32200;SDS011;18701;45.588;5.288;2023-04-24T07:49:23;5.00;;;0.63;;
32200;SDS011;18701;45.588;5.288;2023-04-24T07:51:49;3.45;;;0.40;;
32200;SDS011;18701;45.588;5.288;2023-04-24T07:54:14;3.25;;;0.90;;
32200;SDS011;18701;45.588;5.288;2023-04-24T07:56:40;4.85;;;0.50;;
32200;SDS011;18701;45.588;5.288;2023-04-24T07:59:07;1.75;;;0.65;;
32200;SDS011;18701;45.588;5.288;2023-04-24T08:01:35;1.33;;;0.40;;
32200;SDS011;18701;45.588;5.288;2023-04-24T08:04:00;4.70;;;0.47;;
32200;SDS011;18701;45.588;5.288;2023-04-24T08:06:26;2.28;;;0.52;;
32200;SDS011;18701;45.588;5.288;2023-04-24T08:08:56;2.20;;;0.60;;
32200;SDS011;18701;45.588;5.288;2023-04-24T08:11:22;3.88;;;0.68;;
32200;SDS011;18701;45.588;5.288;2023-04-24T08:13:49;1.80;;;0.40;;
32200;SDS011;18701;45.588;5.288;2023-04-24T08:16:14;6.50;;;0.73;;
32200;SDS011;18701;45.588;5.288;2023-04-24T08:18:40;2.60;;;0.98;;
32200;SDS011;18701;45.588;5.288;2023-04-24T08:21:06;4.95;;;0.52;;
32200;SDS011;18701;45.588;5.288;2023-04-24T08:23:31;6.40;;;0.63;;
32200;SDS011;18701;45.588;5.288;2023-04-24T08:25:57;4.93;;;0.40;;
32200;SDS011;18701;45.588;5.288;2023-04-24T08:28:23;4.45;;;0.60;;
32200;SDS011;18701;45.588;5.288;2023-04-24T08:30:49;2.05;;;0.50;;
32200;SDS011;18701;45.588;5.288;2023-04-24T08:33:19;5.13;;;0.60;;
32200;SDS011;18701;45.588;5.288;2023-04-24T08:35:45;3.25;;;0.52;;
32200;SDS011;18701;45.588;5.288;2023-04-24T08:38:11;2.47;;;0.50;;
32200;SDS011;18701;45.588;5.288;2023-04-24T08:40:36;1.13;;;0.40;;
32200;SDS011;18701;45.588;5.288;2023-04-24T08:43:03;4.15;;;0.70;;
32200;SDS011;18701;45.588;5.288;2023-04-24T08:45:28;2.05;;;0.38;;
32200;SDS011;18701;45.588;5.288;2023-04-24T08:47:54;4.00;;;0.70;;
32200;SDS011;18701;45.588;5.288;2023-04-24T08:50:21;3.83;;;0.57;;
32200;SDS011;18701;45.588;5.288;2023-04-24T08:52:48;4.68;;;0.70;;
32200;SDS011;18701;45.588;5.288;2023-04-24T08:55:15;3.42;;;0.80;;
32200;SDS011;18701;45.588;5.288;2023-04-24T08:57:46;4.38;;;0.45;;
32200;SDS011;18701;45.588;5.288;2023-04-24T09:00:17;4.93;;;0.80;;
32200;SDS011;18701;45.588;5.288;2023-04-24T09:02:44;1.38;;;0.40;;
32200;SDS011;18701;45.588;5.288;2023-04-24T09:05:12;1.75;;;0.40;;
32200;SDS011;18701;45.588;5.288;2023-04-24T09:07:39;5.90;;;0.60;;
32200;SDS011;18701;45.588;5.288;2023-04-24T09:10:06;1.83;;;0.73;;
32200;SDS011;18701;45.588;5.288;2023-04-24T09:12:33;3.63;;;0.52;;
32200;SDS011;18701;45.588;5.288;2023-04-24T09:15:00;4.18;;;0.65;;
32200;SDS011;18701;45.588;5.288;2023-04-24T09:17:28;2.03;;;0.55;;
32200;SDS011;18701;45.588;5.288;2023-04-24T09:19:55;3.38;;;0.50;;
32200;SDS011;18701;45.588;5.288;2023-04-24T09:22:20;3.50;;;0.50;;
32200;SDS011;18701;45.588;5.288;2023-04-24T09:24:46;2.85;;;0.57;;
32200;SDS011;18701;45.588;5.288;2023-04-24T09:27:13;6.93;;;0.70;;
32200;SDS011;18701;45.588;5.288;2023-04-24T09:29:47;2.30;;;0.60;;
32200;SDS011;18701;45.588;5.288;2023-04-24T09:32:22;2.22;;;0.45;;
32200;SDS011;18701;45.588;5.288;2023-04-24T09:35:04;4.57;;;0.63;;
32200;SDS011;18701;45.588;5.288;2023-04-24T09:37:35;7.90;;;0.65;;
32200;SDS011;18701;45.588;5.288;2023-04-24T09:40:08;2.75;;;0.40;;
32200;SDS011;18701;45.588;5.288;2023-04-24T09:42:45;5.45;;;0.77;;
32200;SDS011;18701;45.588;5.288;2023-04-24T09:45:18;5.78;;;0.40;;
32200;SDS011;18701;45.588;5.288;2023-04-24T09:47:43;1.38;;;0.20;;
32200;SDS011;18701;45.588;5.288;2023-04-24T09:50:13;3.28;;;0.43;;
32200;SDS011;18701;45.588;5.288;2023-04-24T09:52:44;3.47;;;0.40;;
32200;SDS011;18701;45.588;5.288;2023-04-24T09:55:13;1.52;;;0.30;;
32200;SDS011;18701;45.588;5.288;2023-04-24T09:57:51;2.03;;;0.30;;
32200;SDS011;18701;45.588;5.288;2023-04-24T10:00:24;6.60;;;0.50;;
32200;SDS011;18701;45.588;5.288;2023-04-24T10:03:01;2.63;;;0.43;;
32200;SDS011;18701;45.588;5.288;2023-04-24T10:08:15;8.27;;;0.70;;
32200;SDS011;18701;45.588;5.288;2023-04-24T10:10:42;1.48;;;0.47;;
32200;SDS011;18701;45.588;5.288;2023-04-24T10:13:12;6.28;;;0.75;;
32200;SDS011;18701;45.588;5.288;2023-04-24T10:15:40;2.50;;;0.40;;
32200;SDS011;18701;45.588;5.288;2023-04-24T10:18:06;3.22;;;0.43;;
32200;SDS011;18701;45.588;5.288;2023-04-24T10:20:35;6.18;;;0.40;;
32200;SDS011;18701;45.588;5.288;2023-04-24T10:23:02;5.70;;;0.30;;
32200;SDS011;18701;45.588;5.288;2023-04-24T10:25:32;3.60;;;0.88;;
32200;SDS011;18701;45.588;5.288;2023-04-24T10:28:00;1.33;;;0.50;;
32200;SDS011;18701;45.588;5.288;2023-04-24T10:30:27;5.30;;;0.35;;
32200;SDS011;18701;45.588;5.288;2023-04-24T10:32:54;4.90;;;0.40;;
32200;SDS011;18701;45.588;5.288;2023-04-24T10:35:20;2.33;;;0.30;;
32200;SDS011;18701;45.588;5.288;2023-04-24T10:37:52;1.98;;;0.30;;
32200;SDS011;18701;45.588;5.288;2023-04-24T10:40:26;2.83;;;0.22;;
32200;SDS011;18701;45.588;5.288;2023-04-24T10:42:55;2.50;;;0.22;;
32200;SDS011;18701;45.588;5.288;2023-04-24T10:45:21;2.28;;;0.30;;
32200;SDS011;18701;45.588;5.288;2023-04-24T10:48:31;3.30;;;0.60;;
32200;SDS011;18701;45.588;5.288;2023-04-24T10:50:43;3.97;;;0.52;;
32200;SDS011;18701;45.588;5.288;2023-04-24T10:53:19;6.93;;;0.57;;
32200;SDS011;18701;45.588;5.288;2023-04-24T10:55:49;2.20;;;0.38;;
32200;SDS011;18701;45.588;5.288;2023-04-24T10:58:16;2.67;;;0.50;;
32200;SDS011;18701;45.588;5.288;2023-04-24T11:00:56;1.95;;;0.30;;
32200;SDS011;18701;45.588;5.288;2023-04-24T11:05:56;3.08;;;0.75;;
32200;SDS011;18701;45.588;5.288;2023-04-24T11:08:29;5.68;;;0.57;;
32200;SDS011;18701;45.588;5.288;2023-04-24T11:13:23;4.38;;;0.30;;
32200;SDS011;18701;45.588;5.288;2023-04-24T11:19:07;3.40;;;0.50;;
32200;SDS011;18701;45.588;5.288;2023-04-24T11:21:43;2.53;;;0.40;;
32200;SDS011;18701;45.588;5.288;2023-04-24T11:24:27;1.27;;;0.32;;
32200;SDS011;18701;45.588;5.288;2023-04-24T11:29:39;2.65;;;0.30;;
32200;SDS011;18701;45.588;5.288;2023-04-24T11:32:26;6.32;;;0.52;;
32200;SDS011;18701;45.588;5.288;2023-04-24T11:34:59;3.13;;;0.40;;
32200;SDS011;18701;45.588;5.288;2023-04-24T11:37:29;4.43;;;0.50;;
32200;SDS011;18701;45.588;5.288;2023-04-24T11:40:02;1.90;;;0.43;;
32200;SDS011;18701;45.588;5.288;2023-04-24T11:42:39;1.42;;;0.30;;
32200;SDS011;18701;45.588;5.288;2023-04-24T11:45:08;1.35;;;0.55;;
32200;SDS011;18701;45.588;5.288;2023-04-24T11:47:35;2.75;;;0.30;;
32200;SDS011;18701;45.588;5.288;2023-04-24T11:50:02;2.42;;;0.30;;
32200;SDS011;18701;45.588;5.288;2023-04-24T11:52:30;3.03;;;0.40;;
32200;SDS011;18701;45.588;5.288;2023-04-24T11:54:56;5.35;;;0.43;;
32200;SDS011;18701;45.588;5.288;2023-04-24T11:57:25;0.55;;;0.30;;
32200;SDS011;18701;45.588;5.288;2023-04-24T11:59:58;1.67;;;0.20;;
32200;SDS011;18701;45.588;5.288;2023-04-24T12:02:25;3.30;;;0.40;;
32200;SDS011;18701;45.588;5.288;2023-04-24T12:04:52;3.95;;;0.60;;
32200;SDS011;18701;45.588;5.288;2023-04-24T12:07:20;2.00;;;0.40;;
32200;SDS011;18701;45.588;5.288;2023-04-24T12:09:48;3.40;;;0.50;;
32200;SDS011;18701;45.588;5.288;2023-04-24T12:12:20;4.45;;;0.35;;
32200;SDS011;18701;45.588;5.288;2023-04-24T12:14:53;1.48;;;0.30;;
32200;SDS011;18701;45.588;5.288;2023-04-24T12:17:26;2.25;;;0.10;;
32200;SDS011;18701;45.588;5.288;2023-04-24T12:19:57;4.40;;;0.38;;
32200;SDS011;18701;45.588;5.288;2023-04-24T12:22:45;2.65;;;0.28;;
32200;SDS011;18701;45.588;5.288;2023-04-24T12:25:19;3.75;;;0.50;;
32200;SDS011;18701;45.588;5.288;2023-04-24T12:27:46;1.90;;;0.30;;
32200;SDS011;18701;45.588;5.288;2023-04-24T12:30:17;2.40;;;0.40;;
32200;SDS011;18701;45.588;5.288;2023-04-24T12:32:46;2.17;;;0.30;;
32200;SDS011;18701;45.588;5.288;2023-04-24T12:35:18;1.55;;;0.22;;
32200;SDS011;18701;45.588;5.288;2023-04-24T12:37:45;1.98;;;0.20;;
32200;SDS011;18701;45.588;5.288;2023-04-24T12:40:11;1.60;;;0.20;;
32200;SDS011;18701;45.588;5.288;2023-04-24T12:42:47;3.63;;;0.40;;
32200;SDS011;18701;45.588;5.288;2023-04-24T12:45:14;2.90;;;0.43;;
32200;SDS011;18701;45.588;5.288;2023-04-24T12:47:41;1.30;;;0.40;;
32200;SDS011;18701;45.588;5.288;2023-04-24T12:50:08;2.78;;;0.38;;
32200;SDS011;18701;45.588;5.288;2023-04-24T12:52:38;1.52;;;0.30;;
32200;SDS011;18701;45.588;5.288;2023-04-24T12:55:05;1.83;;;0.40;;
32200;SDS011;18701;45.588;5.288;2023-04-24T12:57:34;3.42;;;0.82;;
32200;SDS011;18701;45.588;5.288;2023-04-24T13:00:01;3.47;;;0.20;;
32200;SDS011;18701;45.588;5.288;2023-04-24T13:02:28;6.28;;;0.40;;
32200;SDS011;18701;45.588;5.288;2023-04-24T13:04:56;4.85;;;0.20;;
32200;SDS011;18701;45.588;5.288;2023-04-24T13:07:24;4.07;;;0.30;;
32200;SDS011;18701;45.588;5.288;2023-04-24T13:09:51;2.88;;;0.40;;
32200;SDS011;18701;45.588;5.288;2023-04-24T13:12:17;1.23;;;0.38;;
32200;SDS011;18701;45.588;5.288;2023-04-24T13:14:43;1.95;;;0.40;;
32200;SDS011;18701;45.588;5.288;2023-04-24T13:17:10;2.40;;;0.28;;
32200;SDS011;18701;45.588;5.288;2023-04-24T13:19:37;6.78;;;0.50;;
32200;SDS011;18701;45.588;5.288;2023-04-24T13:22:04;9.38;;;0.85;;
32200;SDS011;18701;45.588;5.288;2023-04-24T13:24:30;42.00;;;5.05;;
32200;SDS011;18701;45.588;5.288;2023-04-24T13:26:56;20.40;;;2.90;;
32200;SDS011;18701;45.588;5.288;2023-04-24T13:29:23;7.53;;;0.70;;
32200;SDS011;18701;45.588;5.288;2023-04-24T13:31:52;2.92;;;0.50;;
32200;SDS011;18701;45.588;5.288;2023-04-24T13:34:25;2.58;;;0.40;;
32200;SDS011;18701;45.588;5.288;2023-04-24T13:36:55;2.88;;;0.40;;
32200;SDS011;18701;45.588;5.288;2023-04-24T13:39:24;2.05;;;0.32;;
32200;SDS011;18701;45.588;5.288;2023-04-24T13:41:57;2.28;;;0.40;;
32200;SDS011;18701;45.588;5.288;2023-04-24T13:44:23;3.42;;;0.30;;
32200;SDS011;18701;45.588;5.288;2023-04-24T13:46:51;4.28;;;0.30;;
32200;SDS011;18701;45.588;5.288;2023-04-24T13:49:19;2.33;;;0.30;;
32200;SDS011;18701;45.588;5.288;2023-04-24T13:51:46;5.30;;;0.28;;
32200;SDS011;18701;45.588;5.288;2023-04-24T13:54:11;6.72;;;0.63;;
32200;SDS011;18701;45.588;5.288;2023-04-24T13:56:38;3.53;;;0.52;;
32200;SDS011;18701;45.588;5.288;2023-04-24T13:59:05;10.02;;;0.60;;
32200;SDS011;18701;45.588;5.288;2023-04-24T14:01:30;3.13;;;0.30;;
32200;SDS011;18701;45.588;5.288;2023-04-24T14:03:56;0.80;;;0.30;;
32200;SDS011;18701;45.588;5.288;2023-04-24T14:06:22;2.80;;;0.32;;
32200;SDS011;18701;45.588;5.288;2023-04-24T14:08:48;2.17;;;0.38;;
32200;SDS011;18701;45.588;5.288;2023-04-24T14:11:14;1.80;;;0.30;;
32200;SDS011;18701;45.588;5.288;2023-04-24T14:13:40;3.67;;;0.47;;
32200;SDS011;18701;45.588;5.288;2023-04-24T14:16:07;3.45;;;0.20;;
32200;SDS011;18701;45.588;5.288;2023-04-24T14:18:32;1.73;;;0.30;;
32200;SDS011;18701;45.588;5.288;2023-04-24T14:20:58;4.53;;;0.40;;
32200;SDS011;18701;45.588;5.288;2023-04-24T14:23:26;1.23;;;0.20;;
32200;SDS011;18701;45.588;5.288;2023-04-24T14:25:51;4.25;;;0.30;;
32200;SDS011;18701;45.588;5.288;2023-04-24T14:28:20;1.60;;;0.20;;
32200;SDS011;18701;45.588;5.288;2023-04-24T14:30:47;1.85;;;0.20;;
32200;SDS011;18701;45.588;5.288;2023-04-24T14:33:13;3.17;;;0.40;;
32200;SDS011;18701;45.588;5.288;2023-04-24T14:35:39;5.22;;;0.50;;
32200;SDS011;18701;45.588;5.288;2023-04-24T14:38:06;12.65;;;0.47;;
32200;SDS011;18701;45.588;5.288;2023-04-24T14:40:32;3.63;;;0.43;;
32200;SDS011;18701;45.588;5.288;2023-04-24T14:42:58;1.55;;;0.35;;
32200;SDS011;18701;45.588;5.288;2023-04-24T14:45:24;1.92;;;0.20;;
32200;SDS011;18701;45.588;5.288;2023-04-24T14:47:50;2.53;;;0.30;;
32200;SDS011;18701;45.588;5.288;2023-04-24T14:50:16;5.53;;;0.30;;
32200;SDS011;18701;45.588;5.288;2023-04-24T14:52:42;5.22;;;0.60;;
32200;SDS011;18701;45.588;5.288;2023-04-24T14:55:07;4.32;;;0.75;;
32200;SDS011;18701;45.588;5.288;2023-04-24T14:57:33;4.43;;;0.52;;
32200;SDS011;18701;45.588;5.288;2023-04-24T15:00:00;2.45;;;0.50;;
32200;SDS011;18701;45.588;5.288;2023-04-24T15:02:28;2.88;;;0.30;;